sensor_id;sensor_type;location;lat;lon;timestamp;temperature;humidity
41592;DHT22;28026;48.562;14.440;2022-09-28T00:01:20;6.80;99.90
41592;DHT22;28026;48.562;14.440;2022-09-28T00:03:55;6.70;99.90
41592;DHT22;28026;48.562;14.440;2022-09-28T00:06:30;6.60;99.90
41592;DHT22;28026;48.562;14.440;2022-09-28T00:09:01;6.70;99.90
41592;DHT22;28026;48.562;14.440;2022-09-28T00:11:32;6.60;99.90
41592;DHT22;28026;48.562;14.440;2022-09-28T00:14:04;6.50;99.90
41592;DHT22;28026;48.562;14.440;2022-09-28T00:16:41;6.50;99.90
41592;DHT22;28026;48.562;14.440;2022-09-28T00:19:15;6.40;99.90
41592;DHT22;28026;48.562;14.440;2022-09-28T00:21:46;6.20;99.90
41592;DHT22;28026;48.562;14.440;2022-09-28T00:24:17;6.20;99.90
41592;DHT22;28026;48.562;14.440;2022-09-28T00:26:57;6.20;99.90
41592;DHT22;28026;48.562;14.440;2022-09-28T00:29:33;6.10;99.90
41592;DHT22;28026;48.562;14.440;2022-09-28T00:32:10;6.10;99.90
41592;DHT22;28026;48.562;14.440;2022-09-28T00:34:43;6.00;99.90
41592;DHT22;28026;48.562;14.440;2022-09-28T00:37:19;5.90;99.90
41592;DHT22;28026;48.562;14.440;2022-09-28T00:39:50;6.00;99.90
41592;DHT22;28026;48.562;14.440;2022-09-28T00:42:23;5.90;99.90
41592;DHT22;28026;48.562;14.440;2022-09-28T00:44:57;5.90;99.90
41592;DHT22;28026;48.562;14.440;2022-09-28T00:53:20;5.90;99.90
41592;DHT22;28026;48.562;14.440;2022-09-28T00:56:04;5.80;99.90
41592;DHT22;28026;48.562;14.440;2022-09-28T00:58:45;5.70;99.90
41592;DHT22;28026;48.562;14.440;2022-09-28T01:01:21;5.60;99.90
41592;DHT22;28026;48.562;14.440;2022-09-28T01:03:52;5.50;99.90
41592;DHT22;28026;48.562;14.440;2022-09-28T01:06:27;5.40;99.90
41592;DHT22;28026;48.562;14.440;2022-09-28T01:09:06;5.30;99.90
41592;DHT22;28026;48.562;14.440;2022-09-28T01:11:40;5.20;99.90
41592;DHT22;28026;48.562;14.440;2022-09-28T01:14:14;5.10;99.90
41592;DHT22;28026;48.562;14.440;2022-09-28T01:16:56;5.00;99.90
41592;DHT22;28026;48.562;14.440;2022-09-28T01:20:01;5.10;99.90
41592;DHT22;28026;48.562;14.440;2022-09-28T01:31:53;5.20;99.90
41592;DHT22;28026;48.562;14.440;2022-09-28T01:34:45;5.20;99.90
41592;DHT22;28026;48.562;14.440;2022-09-28T01:37:48;5.20;99.90
41592;DHT22;28026;48.562;14.440;2022-09-28T01:40:27;5.20;99.90
41592;DHT22;28026;48.562;14.440;2022-09-28T01:43:33;5.20;99.90
41592;DHT22;28026;48.562;14.440;2022-09-28T01:46:18;5.20;99.90
41592;DHT22;28026;48.562;14.440;2022-09-28T01:51:50;5.10;99.90
41592;DHT22;28026;48.562;14.440;2022-09-28T01:55:04;5.00;99.90
41592;DHT22;28026;48.562;14.440;2022-09-28T01:58:05;4.90;99.90
41592;DHT22;28026;48.562;14.440;2022-09-28T02:00:41;4.60;99.90
41592;DHT22;28026;48.562;14.440;2022-09-28T02:03:38;4.30;99.90
41592;DHT22;28026;48.562;14.440;2022-09-28T02:06:35;4.30;99.90
41592;DHT22;28026;48.562;14.440;2022-09-28T02:09:41;4.50;99.90
41592;DHT22;28026;48.562;14.440;2022-09-28T02:12:40;4.40;99.90
41592;DHT22;28026;48.562;14.440;2022-09-28T02:15:52;4.40;99.90
41592;DHT22;28026;48.562;14.440;2022-09-28T02:18:32;4.40;99.90
41592;DHT22;28026;48.562;14.440;2022-09-28T02:21:15;4.50;99.90
41592;DHT22;28026;48.562;14.440;2022-09-28T02:23:57;4.60;99.90
41592;DHT22;28026;48.562;14.440;2022-09-28T02:26:40;4.70;99.90
41592;DHT22;28026;48.562;14.440;2022-09-28T02:29:15;4.60;99.90
41592;DHT22;28026;48.562;14.440;2022-09-28T02:31:46;4.60;99.90
41592;DHT22;28026;48.562;14.440;2022-09-28T02:34:17;4.70;99.90
41592;DHT22;28026;48.562;14.440;2022-09-28T02:36:48;4.80;99.90
41592;DHT22;28026;48.562;14.440;2022-09-28T02:39:19;4.90;99.90
41592;DHT22;28026;48.562;14.440;2022-09-28T02:42:02;4.90;99.90
41592;DHT22;28026;48.562;14.440;2022-09-28T02:45:28;4.90;99.90
41592;DHT22;28026;48.562;14.440;2022-09-28T02:48:28;4.80;99.90
41592;DHT22;28026;48.562;14.440;2022-09-28T02:51:37;4.90;99.90
41592;DHT22;28026;48.562;14.440;2022-09-28T02:57:07;5.00;99.90
41592;DHT22;28026;48.562;14.440;2022-09-28T03:00:16;5.00;99.90
41592;DHT22;28026;48.562;14.440;2022-09-28T03:06:14;5.10;99.90
41592;DHT22;28026;48.562;14.440;2022-09-28T03:09:25;5.10;99.90
41592;DHT22;28026;48.562;14.440;2022-09-28T03:12:09;5.10;99.90
41592;DHT22;28026;48.562;14.440;2022-09-28T03:14:44;5.20;99.90
41592;DHT22;28026;48.562;14.440;2022-09-28T03:17:15;5.10;99.90
41592;DHT22;28026;48.562;14.440;2022-09-28T03:19:50;5.20;99.90
41592;DHT22;28026;48.562;14.440;2022-09-28T03:22:20;5.20;99.90
41592;DHT22;28026;48.562;14.440;2022-09-28T03:24:51;5.30;99.90
41592;DHT22;28026;48.562;14.440;2022-09-28T03:27:22;5.40;99.90
41592;DHT22;28026;48.562;14.440;2022-09-28T03:29:53;5.40;99.90
41592;DHT22;28026;48.562;14.440;2022-09-28T03:32:24;5.40;99.90
41592;DHT22;28026;48.562;14.440;2022-09-28T03:34:55;5.40;99.90
41592;DHT22;28026;48.562;14.440;2022-09-28T03:37:26;5.50;99.90
41592;DHT22;28026;48.562;14.440;2022-09-28T03:39:58;5.50;99.90
41592;DHT22;28026;48.562;14.440;2022-09-28T03:42:29;5.50;99.90
41592;DHT22;28026;48.562;14.440;2022-09-28T03:45:00;5.60;99.90
41592;DHT22;28026;48.562;14.440;2022-09-28T03:47:31;5.40;99.90
41592;DHT22;28026;48.562;14.440;2022-09-28T03:50:02;5.50;99.90
41592;DHT22;28026;48.562;14.440;2022-09-28T03:52:33;5.50;99.90
41592;DHT22;28026;48.562;14.440;2022-09-28T03:55:04;5.60;99.90
41592;DHT22;28026;48.562;14.440;2022-09-28T03:57:36;5.50;99.90
41592;DHT22;28026;48.562;14.440;2022-09-28T04:00:08;5.40;99.90
41592;DHT22;28026;48.562;14.440;2022-09-28T04:02:39;5.40;99.90
41592;DHT22;28026;48.562;14.440;2022-09-28T04:05:10;5.40;99.90
41592;DHT22;28026;48.562;14.440;2022-09-28T04:07:41;5.40;99.90
41592;DHT22;28026;48.562;14.440;2022-09-28T04:10:12;5.40;99.90
41592;DHT22;28026;48.562;14.440;2022-09-28T04:12:43;5.40;99.90
41592;DHT22;28026;48.562;14.440;2022-09-28T04:15:15;5.30;99.90
41592;DHT22;28026;48.562;14.440;2022-09-28T04:17:46;5.30;99.90
41592;DHT22;28026;48.562;14.440;2022-09-28T04:20:17;5.30;99.90
41592;DHT22;28026;48.562;14.440;2022-09-28T04:22:48;5.40;99.90
41592;DHT22;28026;48.562;14.440;2022-09-28T04:25:19;5.30;99.90
41592;DHT22;28026;48.562;14.440;2022-09-28T04:27:50;5.40;99.90
41592;DHT22;28026;48.562;14.440;2022-09-28T04:30:39;5.40;99.90
41592;DHT22;28026;48.562;14.440;2022-09-28T04:33:10;5.30;99.90
41592;DHT22;28026;48.562;14.440;2022-09-28T04:35:41;5.30;99.90
41592;DHT22;28026;48.562;14.440;2022-09-28T04:38:12;5.30;99.90
41592;DHT22;28026;48.562;14.440;2022-09-28T04:40:43;5.20;99.90
41592;DHT22;28026;48.562;14.440;2022-09-28T04:43:14;5.20;99.90
41592;DHT22;28026;48.562;14.440;2022-09-28T04:45:45;5.00;99.90
41592;DHT22;28026;48.562;14.440;2022-09-28T04:48:15;5.00;99.90
41592;DHT22;28026;48.562;14.440;2022-09-28T04:50:55;5.00;99.90
41592;DHT22;28026;48.562;14.440;2022-09-28T04:53:28;5.00;99.90
41592;DHT22;28026;48.562;14.440;2022-09-28T04:56:08;5.10;99.90
41592;DHT22;28026;48.562;14.440;2022-09-28T04:58:47;5.20;99.90
41592;DHT22;28026;48.562;14.440;2022-09-28T05:01:19;5.10;99.90
41592;DHT22;28026;48.562;14.440;2022-09-28T05:03:52;5.10;99.90
41592;DHT22;28026;48.562;14.440;2022-09-28T05:06:23;5.20;99.90
41592;DHT22;28026;48.562;14.440;2022-09-28T05:08:57;5.20;99.90
41592;DHT22;28026;48.562;14.440;2022-09-28T05:11:28;5.20;99.90
41592;DHT22;28026;48.562;14.440;2022-09-28T05:13:59;5.20;99.90
41592;DHT22;28026;48.562;14.440;2022-09-28T05:16:30;5.20;99.90
41592;DHT22;28026;48.562;14.440;2022-09-28T05:19:03;5.10;99.90
41592;DHT22;28026;48.562;14.440;2022-09-28T05:21:35;5.20;99.90
41592;DHT22;28026;48.562;14.440;2022-09-28T05:24:06;5.20;99.90
41592;DHT22;28026;48.562;14.440;2022-09-28T05:26:38;5.20;99.90
41592;DHT22;28026;48.562;14.440;2022-09-28T05:29:09;5.20;99.90
41592;DHT22;28026;48.562;14.440;2022-09-28T05:31:40;5.30;99.90
41592;DHT22;28026;48.562;14.440;2022-09-28T05:34:11;5.20;99.90
41592;DHT22;28026;48.562;14.440;2022-09-28T05:36:42;5.20;99.90
41592;DHT22;28026;48.562;14.440;2022-09-28T05:39:15;5.20;99.90
41592;DHT22;28026;48.562;14.440;2022-09-28T05:41:45;5.20;99.90
41592;DHT22;28026;48.562;14.440;2022-09-28T05:44:16;5.30;99.90
41592;DHT22;28026;48.562;14.440;2022-09-28T05:46:47;5.20;99.90
41592;DHT22;28026;48.562;14.440;2022-09-28T05:49:18;5.30;99.90
41592;DHT22;28026;48.562;14.440;2022-09-28T05:51:49;5.30;99.90
41592;DHT22;28026;48.562;14.440;2022-09-28T05:54:20;5.40;99.90
41592;DHT22;28026;48.562;14.440;2022-09-28T05:56:51;5.30;99.90
41592;DHT22;28026;48.562;14.440;2022-09-28T05:59:22;5.30;99.90
41592;DHT22;28026;48.562;14.440;2022-09-28T06:01:53;5.30;99.90
41592;DHT22;28026;48.562;14.440;2022-09-28T06:04:24;5.30;99.90
41592;DHT22;28026;48.562;14.440;2022-09-28T06:06:55;5.40;99.90
41592;DHT22;28026;48.562;14.440;2022-09-28T06:09:27;5.40;99.90
41592;DHT22;28026;48.562;14.440;2022-09-28T06:12:00;5.40;99.90
41592;DHT22;28026;48.562;14.440;2022-09-28T06:14:31;5.40;99.90
41592;DHT22;28026;48.562;14.440;2022-09-28T06:17:01;5.60;99.90
41592;DHT22;28026;48.562;14.440;2022-09-28T06:19:32;5.60;99.90
41592;DHT22;28026;48.562;14.440;2022-09-28T06:22:03;5.70;99.90
41592;DHT22;28026;48.562;14.440;2022-09-28T06:24:34;5.70;99.90
41592;DHT22;28026;48.562;14.440;2022-09-28T06:27:05;5.80;99.90
41592;DHT22;28026;48.562;14.440;2022-09-28T06:29:36;5.80;99.90
41592;DHT22;28026;48.562;14.440;2022-09-28T06:32:07;5.80;99.90
41592;DHT22;28026;48.562;14.440;2022-09-28T06:34:38;5.80;99.90
41592;DHT22;28026;48.562;14.440;2022-09-28T06:37:11;5.90;99.90
41592;DHT22;28026;48.562;14.440;2022-09-28T06:39:42;5.80;99.90
41592;DHT22;28026;48.562;14.440;2022-09-28T06:42:13;5.90;99.90
41592;DHT22;28026;48.562;14.440;2022-09-28T06:44:45;6.00;99.90
41592;DHT22;28026;48.562;14.440;2022-09-28T06:47:16;6.20;99.90
41592;DHT22;28026;48.562;14.440;2022-09-28T06:49:47;6.20;99.90
41592;DHT22;28026;48.562;14.440;2022-09-28T06:52:20;6.30;99.90
41592;DHT22;28026;48.562;14.440;2022-09-28T06:54:51;6.40;99.90
41592;DHT22;28026;48.562;14.440;2022-09-28T06:57:22;6.80;99.90
41592;DHT22;28026;48.562;14.440;2022-09-28T06:59:53;7.20;99.90
41592;DHT22;28026;48.562;14.440;2022-09-28T07:02:24;7.60;99.90
41592;DHT22;28026;48.562;14.440;2022-09-28T07:04:54;7.70;99.90
41592;DHT22;28026;48.562;14.440;2022-09-28T07:07:25;7.40;99.90
41592;DHT22;28026;48.562;14.440;2022-09-28T07:09:56;7.40;99.90
41592;DHT22;28026;48.562;14.440;2022-09-28T07:12:27;7.30;99.90
41592;DHT22;28026;48.562;14.440;2022-09-28T07:14:59;7.30;99.90
41592;DHT22;28026;48.562;14.440;2022-09-28T07:17:30;7.30;99.90
41592;DHT22;28026;48.562;14.440;2022-09-28T07:20:01;7.30;99.90
41592;DHT22;28026;48.562;14.440;2022-09-28T07:22:34;7.50;99.90
41592;DHT22;28026;48.562;14.440;2022-09-28T07:25:06;7.50;99.90
41592;DHT22;28026;48.562;14.440;2022-09-28T07:27:38;7.40;99.90
41592;DHT22;28026;48.562;14.440;2022-09-28T07:30:10;7.20;99.90
41592;DHT22;28026;48.562;14.440;2022-09-28T07:32:41;7.10;99.90
41592;DHT22;28026;48.562;14.440;2022-09-28T07:35:15;7.10;99.90
41592;DHT22;28026;48.562;14.440;2022-09-28T07:37:45;7.10;99.90
41592;DHT22;28026;48.562;14.440;2022-09-28T07:40:16;7.10;99.90
41592;DHT22;28026;48.562;14.440;2022-09-28T07:43:06;7.10;99.90
41592;DHT22;28026;48.562;14.440;2022-09-28T07:45:38;7.20;99.90
41592;DHT22;28026;48.562;14.440;2022-09-28T07:48:14;7.20;99.90
41592;DHT22;28026;48.562;14.440;2022-09-28T07:50:51;7.20;99.90
41592;DHT22;28026;48.562;14.440;2022-09-28T07:53:26;7.20;99.90
41592;DHT22;28026;48.562;14.440;2022-09-28T07:55:59;7.30;99.90
41592;DHT22;28026;48.562;14.440;2022-09-28T07:58:38;7.40;99.90
41592;DHT22;28026;48.562;14.440;2022-09-28T08:01:10;7.60;99.90
41592;DHT22;28026;48.562;14.440;2022-09-28T08:03:44;7.80;99.90
41592;DHT22;28026;48.562;14.440;2022-09-28T08:06:17;8.00;99.90
41592;DHT22;28026;48.562;14.440;2022-09-28T08:08:48;8.00;99.90
41592;DHT22;28026;48.562;14.440;2022-09-28T08:11:19;8.10;99.90
41592;DHT22;28026;48.562;14.440;2022-09-28T08:13:50;8.30;99.90
41592;DHT22;28026;48.562;14.440;2022-09-28T08:16:26;8.20;99.90
41592;DHT22;28026;48.562;14.440;2022-09-28T08:18:58;8.10;99.90
41592;DHT22;28026;48.562;14.440;2022-09-28T08:21:28;8.30;99.90
41592;DHT22;28026;48.562;14.440;2022-09-28T08:24:16;8.40;99.90
41592;DHT22;28026;48.562;14.440;2022-09-28T08:26:48;8.40;99.90
41592;DHT22;28026;48.562;14.440;2022-09-28T08:29:19;8.50;99.90
41592;DHT22;28026;48.562;14.440;2022-09-28T08:31:50;8.60;99.90
41592;DHT22;28026;48.562;14.440;2022-09-28T08:34:21;8.80;99.90
41592;DHT22;28026;48.562;14.440;2022-09-28T08:36:54;9.00;99.90
41592;DHT22;28026;48.562;14.440;2022-09-28T08:39:26;9.00;99.90
41592;DHT22;28026;48.562;14.440;2022-09-28T08:44:56;9.30;99.90
41592;DHT22;28026;48.562;14.440;2022-09-28T08:53:47;9.40;99.90
41592;DHT22;28026;48.562;14.440;2022-09-28T08:59:57;9.40;99.90
41592;DHT22;28026;48.562;14.440;2022-09-28T09:02:33;9.20;99.90
41592;DHT22;28026;48.562;14.440;2022-09-28T09:05:11;9.30;99.90
41592;DHT22;28026;48.562;14.440;2022-09-28T09:19:36;9.60;99.90
41592;DHT22;28026;48.562;14.440;2022-09-28T09:25:27;10.00;99.90
41592;DHT22;28026;48.562;14.440;2022-09-28T09:39:16;10.40;99.90
41592;DHT22;28026;48.562;14.440;2022-09-28T09:45:51;10.60;99.90
41592;DHT22;28026;48.562;14.440;2022-09-28T09:52:17;11.10;99.90
41592;DHT22;28026;48.562;14.440;2022-09-28T09:55:14;11.40;99.90
41592;DHT22;28026;48.562;14.440;2022-09-28T09:58:34;11.60;99.90
41592;DHT22;28026;48.562;14.440;2022-09-28T10:01:16;10.90;99.90
41592;DHT22;28026;48.562;14.440;2022-09-28T10:03:57;11.10;99.90
41592;DHT22;28026;48.562;14.440;2022-09-28T10:06:31;11.20;99.90
41592;DHT22;28026;48.562;14.440;2022-09-28T10:09:12;11.00;99.90
41592;DHT22;28026;48.562;14.440;2022-09-28T10:11:52;10.90;99.90
41592;DHT22;28026;48.562;14.440;2022-09-28T10:14:24;10.80;99.90
41592;DHT22;28026;48.562;14.440;2022-09-28T10:16:55;10.80;99.90
41592;DHT22;28026;48.562;14.440;2022-09-28T10:19:32;10.60;99.90
41592;DHT22;28026;48.562;14.440;2022-09-28T10:22:06;10.70;99.90
41592;DHT22;28026;48.562;14.440;2022-09-28T10:24:44;10.70;99.90
41592;DHT22;28026;48.562;14.440;2022-09-28T10:27:32;10.60;99.90
41592;DHT22;28026;48.562;14.440;2022-09-28T10:32:45;10.60;99.90
41592;DHT22;28026;48.562;14.440;2022-09-28T10:38:15;10.90;99.90
41592;DHT22;28026;48.562;14.440;2022-09-28T10:40:50;10.90;99.90
41592;DHT22;28026;48.562;14.440;2022-09-28T10:43:34;10.80;99.90
41592;DHT22;28026;48.562;14.440;2022-09-28T10:46:20;10.70;99.90
41592;DHT22;28026;48.562;14.440;2022-09-28T10:51:50;10.50;99.90
41592;DHT22;28026;48.562;14.440;2022-09-28T10:54:30;10.50;99.90
41592;DHT22;28026;48.562;14.440;2022-09-28T10:57:33;10.10;99.90
41592;DHT22;28026;48.562;14.440;2022-09-28T11:00:39;9.80;99.90
41592;DHT22;28026;48.562;14.440;2022-09-28T11:03:22;9.80;99.90
41592;DHT22;28026;48.562;14.440;2022-09-28T11:05:59;10.00;99.90
41592;DHT22;28026;48.562;14.440;2022-09-28T11:08:38;9.90;99.90
41592;DHT22;28026;48.562;14.440;2022-09-28T11:11:14;9.90;99.90
41592;DHT22;28026;48.562;14.440;2022-09-28T11:13:51;9.70;99.90
41592;DHT22;28026;48.562;14.440;2022-09-28T11:16:27;9.40;99.90
41592;DHT22;28026;48.562;14.440;2022-09-28T11:21:59;9.40;99.90
41592;DHT22;28026;48.562;14.440;2022-09-28T11:24:30;9.50;99.90
41592;DHT22;28026;48.562;14.440;2022-09-28T11:27:01;9.40;99.90
41592;DHT22;28026;48.562;14.440;2022-09-28T11:29:41;9.50;99.90
41592;DHT22;28026;48.562;14.440;2022-09-28T11:32:22;9.70;99.90
41592;DHT22;28026;48.562;14.440;2022-09-28T11:35:19;9.60;99.90
41592;DHT22;28026;48.562;14.440;2022-09-28T11:50:27;9.80;99.90
41592;DHT22;28026;48.562;14.440;2022-09-28T11:56:37;9.90;99.90
41592;DHT22;28026;48.562;14.440;2022-09-28T11:59:21;10.40;99.90
41592;DHT22;28026;48.562;14.440;2022-09-28T12:02:14;11.20;99.90
41592;DHT22;28026;48.562;14.440;2022-09-28T12:05:10;11.80;99.90
41592;DHT22;28026;48.562;14.440;2022-09-28T12:07:58;12.40;99.90
41592;DHT22;28026;48.562;14.440;2022-09-28T12:11:01;11.60;99.90
41592;DHT22;28026;48.562;14.440;2022-09-28T12:13:55;11.30;99.90
41592;DHT22;28026;48.562;14.440;2022-09-28T12:16:40;11.50;99.90
41592;DHT22;28026;48.562;14.440;2022-09-28T12:19:48;11.50;99.90
41592;DHT22;28026;48.562;14.440;2022-09-28T12:22:43;11.10;99.90
41592;DHT22;28026;48.562;14.440;2022-09-28T12:25:27;11.10;99.90
41592;DHT22;28026;48.562;14.440;2022-09-28T12:28:15;10.90;99.90
41592;DHT22;28026;48.562;14.440;2022-09-28T12:31:29;10.90;99.90
41592;DHT22;28026;48.562;14.440;2022-09-28T12:34:09;10.50;99.90
41592;DHT22;28026;48.562;14.440;2022-09-28T12:49:25;10.30;99.90
41592;DHT22;28026;48.562;14.440;2022-09-28T13:04:19;10.10;99.90
41592;DHT22;28026;48.562;14.440;2022-09-28T13:11:21;10.00;99.90
41592;DHT22;28026;48.562;14.440;2022-09-28T13:26:19;10.30;99.90
41592;DHT22;28026;48.562;14.440;2022-09-28T13:29:06;10.10;99.90
41592;DHT22;28026;48.562;14.440;2022-09-28T13:34:31;10.20;99.90
41592;DHT22;28026;48.562;14.440;2022-09-28T13:45:26;10.20;99.90
41592;DHT22;28026;48.562;14.440;2022-09-28T13:48:13;10.20;99.90
41592;DHT22;28026;48.562;14.440;2022-09-28T13:53:57;10.00;99.90
41592;DHT22;28026;48.562;14.440;2022-09-28T13:57:15;10.10;99.90
41592;DHT22;28026;48.562;14.440;2022-09-28T14:02:48;10.00;99.90
41592;DHT22;28026;48.562;14.440;2022-09-28T14:05:46;10.00;99.90
41592;DHT22;28026;48.562;14.440;2022-09-28T14:08:37;10.00;99.90
41592;DHT22;28026;48.562;14.440;2022-09-28T14:13:59;9.80;99.90
41592;DHT22;28026;48.562;14.440;2022-09-28T14:16:40;9.70;99.90
41592;DHT22;28026;48.562;14.440;2022-09-28T14:19:22;9.80;99.90
41592;DHT22;28026;48.562;14.440;2022-09-28T14:31:27;9.90;99.90
41592;DHT22;28026;48.562;14.440;2022-09-28T14:34:01;10.00;99.90
41592;DHT22;28026;48.562;14.440;2022-09-28T14:36:37;9.90;99.90
41592;DHT22;28026;48.562;14.440;2022-09-28T14:39:37;9.80;99.90
41592;DHT22;28026;48.562;14.440;2022-09-28T14:42:32;9.60;99.90
41592;DHT22;28026;48.562;14.440;2022-09-28T14:47:41;9.30;99.90
41592;DHT22;28026;48.562;14.440;2022-09-28T14:50:24;9.30;99.90
41592;DHT22;28026;48.562;14.440;2022-09-28T14:53:05;9.50;99.90
41592;DHT22;28026;48.562;14.440;2022-09-28T14:55:53;9.50;99.90
41592;DHT22;28026;48.562;14.440;2022-09-28T14:58:27;9.70;99.90
41592;DHT22;28026;48.562;14.440;2022-09-28T15:01:04;9.90;99.90
41592;DHT22;28026;48.562;14.440;2022-09-28T15:03:55;9.80;99.90
41592;DHT22;28026;48.562;14.440;2022-09-28T15:06:48;9.60;99.90
41592;DHT22;28026;48.562;14.440;2022-09-28T15:09:35;9.60;99.90
41592;DHT22;28026;48.562;14.440;2022-09-28T15:14:59;9.80;99.90
41592;DHT22;28026;48.562;14.440;2022-09-28T15:17:38;9.70;99.90
41592;DHT22;28026;48.562;14.440;2022-09-28T15:22:59;9.80;99.90
41592;DHT22;28026;48.562;14.440;2022-09-28T15:25:32;9.60;99.90
41592;DHT22;28026;48.562;14.440;2022-09-28T15:28:17;9.50;99.90
41592;DHT22;28026;48.562;14.440;2022-09-28T15:31:01;9.50;99.90
41592;DHT22;28026;48.562;14.440;2022-09-28T15:33:34;9.50;99.90
41592;DHT22;28026;48.562;14.440;2022-09-28T15:36:29;9.40;99.90
41592;DHT22;28026;48.562;14.440;2022-09-28T15:41:54;9.30;99.90
41592;DHT22;28026;48.562;14.440;2022-09-28T15:44:35;9.30;99.90
41592;DHT22;28026;48.562;14.440;2022-09-28T15:47:14;9.30;99.90
41592;DHT22;28026;48.562;14.440;2022-09-28T15:50:27;9.40;99.90
41592;DHT22;28026;48.562;14.440;2022-09-28T15:53:02;9.30;99.90
41592;DHT22;28026;48.562;14.440;2022-09-28T15:55:41;9.20;99.90
41592;DHT22;28026;48.562;14.440;2022-09-28T15:58:16;9.30;99.90
41592;DHT22;28026;48.562;14.440;2022-09-28T16:15:30;8.70;99.90
41592;DHT22;28026;48.562;14.440;2022-09-28T16:18:15;8.60;99.90
41592;DHT22;28026;48.562;14.440;2022-09-28T16:20:52;8.60;99.90
41592;DHT22;28026;48.562;14.440;2022-09-28T16:23:31;8.60;99.90
41592;DHT22;28026;48.562;14.440;2022-09-28T16:28:48;8.50;99.90
41592;DHT22;28026;48.562;14.440;2022-09-28T16:31:24;8.50;99.90
41592;DHT22;28026;48.562;14.440;2022-09-28T16:34:19;8.40;99.90
41592;DHT22;28026;48.562;14.440;2022-09-28T16:36:56;8.40;99.90
41592;DHT22;28026;48.562;14.440;2022-09-28T16:39:27;8.30;99.90
41592;DHT22;28026;48.562;14.440;2022-09-28T16:42:08;8.30;99.90
41592;DHT22;28026;48.562;14.440;2022-09-28T16:44:42;8.20;99.90
41592;DHT22;28026;48.562;14.440;2022-09-28T16:47:13;8.20;99.90
41592;DHT22;28026;48.562;14.440;2022-09-28T16:49:45;8.30;99.90
41592;DHT22;28026;48.562;14.440;2022-09-28T16:52:17;8.30;99.90
41592;DHT22;28026;48.562;14.440;2022-09-28T16:55:11;8.20;99.90
41592;DHT22;28026;48.562;14.440;2022-09-28T16:57:46;8.20;99.90
41592;DHT22;28026;48.562;14.440;2022-09-28T17:00:23;8.10;99.90
41592;DHT22;28026;48.562;14.440;2022-09-28T17:02:56;8.10;99.90
41592;DHT22;28026;48.562;14.440;2022-09-28T17:05:27;8.00;99.90
41592;DHT22;28026;48.562;14.440;2022-09-28T17:08:00;8.10;99.90
41592;DHT22;28026;48.562;14.440;2022-09-28T17:10:41;8.10;99.90
41592;DHT22;28026;48.562;14.440;2022-09-28T17:13:27;8.20;99.90
41592;DHT22;28026;48.562;14.440;2022-09-28T17:16:17;8.20;99.90
41592;DHT22;28026;48.562;14.440;2022-09-28T17:18:51;8.20;99.90
41592;DHT22;28026;48.562;14.440;2022-09-28T17:21:22;8.20;99.90
41592;DHT22;28026;48.562;14.440;2022-09-28T17:23:53;8.10;99.90
41592;DHT22;28026;48.562;14.440;2022-09-28T17:26:28;8.10;99.90
41592;DHT22;28026;48.562;14.440;2022-09-28T17:29:04;8.30;99.90
41592;DHT22;28026;48.562;14.440;2022-09-28T17:31:38;8.30;99.90
41592;DHT22;28026;48.562;14.440;2022-09-28T17:34:10;8.30;99.90
41592;DHT22;28026;48.562;14.440;2022-09-28T17:36:44;8.30;99.90
41592;DHT22;28026;48.562;14.440;2022-09-28T17:39:17;8.40;99.90
41592;DHT22;28026;48.562;14.440;2022-09-28T17:41:49;8.30;99.90
41592;DHT22;28026;48.562;14.440;2022-09-28T17:44:20;8.30;99.90
41592;DHT22;28026;48.562;14.440;2022-09-28T17:46:51;8.10;99.90
41592;DHT22;28026;48.562;14.440;2022-09-28T17:49:23;8.00;99.90
41592;DHT22;28026;48.562;14.440;2022-09-28T17:51:54;8.00;99.90
41592;DHT22;28026;48.562;14.440;2022-09-28T17:54:25;8.00;99.90
41592;DHT22;28026;48.562;14.440;2022-09-28T17:56:56;8.00;99.90
41592;DHT22;28026;48.562;14.440;2022-09-28T17:59:27;8.00;99.90
41592;DHT22;28026;48.562;14.440;2022-09-28T18:01:58;8.00;99.90
41592;DHT22;28026;48.562;14.440;2022-09-28T18:04:29;7.70;99.90
41592;DHT22;28026;48.562;14.440;2022-09-28T18:07:00;7.60;99.90
41592;DHT22;28026;48.562;14.440;2022-09-28T18:09:31;7.50;99.90
41592;DHT22;28026;48.562;14.440;2022-09-28T18:12:03;7.60;99.90
41592;DHT22;28026;48.562;14.440;2022-09-28T18:14:35;7.60;99.90
41592;DHT22;28026;48.562;14.440;2022-09-28T18:17:08;7.70;99.90
41592;DHT22;28026;48.562;14.440;2022-09-28T18:19:39;7.80;99.90
41592;DHT22;28026;48.562;14.440;2022-09-28T18:22:10;7.70;99.90
41592;DHT22;28026;48.562;14.440;2022-09-28T18:24:40;7.80;99.90
41592;DHT22;28026;48.562;14.440;2022-09-28T18:27:11;7.80;99.90
41592;DHT22;28026;48.562;14.440;2022-09-28T18:29:42;7.70;99.90
41592;DHT22;28026;48.562;14.440;2022-09-28T18:32:13;7.80;99.90
41592;DHT22;28026;48.562;14.440;2022-09-28T18:34:44;7.80;99.90
41592;DHT22;28026;48.562;14.440;2022-09-28T18:37:15;7.80;99.90
41592;DHT22;28026;48.562;14.440;2022-09-28T18:39:48;7.90;99.90
41592;DHT22;28026;48.562;14.440;2022-09-28T18:42:19;7.90;99.90
41592;DHT22;28026;48.562;14.440;2022-09-28T18:44:50;7.80;99.90
41592;DHT22;28026;48.562;14.440;2022-09-28T18:47:21;7.80;99.90
41592;DHT22;28026;48.562;14.440;2022-09-28T18:49:52;7.80;99.90
41592;DHT22;28026;48.562;14.440;2022-09-28T18:52:25;7.80;99.90
41592;DHT22;28026;48.562;14.440;2022-09-28T18:54:56;7.80;99.90
41592;DHT22;28026;48.562;14.440;2022-09-28T18:57:27;7.80;99.90
41592;DHT22;28026;48.562;14.440;2022-09-28T19:00:03;7.80;99.90
41592;DHT22;28026;48.562;14.440;2022-09-28T19:02:37;7.80;99.90
41592;DHT22;28026;48.562;14.440;2022-09-28T19:05:08;7.70;99.90
41592;DHT22;28026;48.562;14.440;2022-09-28T19:07:39;7.70;99.90
41592;DHT22;28026;48.562;14.440;2022-09-28T19:10:10;7.70;99.90
41592;DHT22;28026;48.562;14.440;2022-09-28T19:12:41;7.80;99.90
41592;DHT22;28026;48.562;14.440;2022-09-28T19:15:12;7.70;99.90
41592;DHT22;28026;48.562;14.440;2022-09-28T19:17:43;7.70;99.90
41592;DHT22;28026;48.562;14.440;2022-09-28T19:20:16;7.60;99.90
41592;DHT22;28026;48.562;14.440;2022-09-28T19:22:48;7.60;99.90
41592;DHT22;28026;48.562;14.440;2022-09-28T19:25:20;7.80;99.90
41592;DHT22;28026;48.562;14.440;2022-09-28T19:27:51;7.80;99.90
41592;DHT22;28026;48.562;14.440;2022-09-28T19:30:22;7.80;99.90
41592;DHT22;28026;48.562;14.440;2022-09-28T19:32:53;7.60;99.90
41592;DHT22;28026;48.562;14.440;2022-09-28T19:35:23;7.70;99.90
41592;DHT22;28026;48.562;14.440;2022-09-28T19:37:54;7.80;99.90
41592;DHT22;28026;48.562;14.440;2022-09-28T19:40:25;7.80;99.90
41592;DHT22;28026;48.562;14.440;2022-09-28T19:42:56;7.80;99.90
41592;DHT22;28026;48.562;14.440;2022-09-28T19:45:29;7.90;99.90
41592;DHT22;28026;48.562;14.440;2022-09-28T19:48:00;7.90;99.90
41592;DHT22;28026;48.562;14.440;2022-09-28T19:50:32;7.80;99.90